Time;durP1;ratioP1;P1;durP2;ratioP2;P2;SDS_P1;SDS_P2;PMS_P1;PMS_P2;Temp;Humidity;BMP_temperature;BMP_pressure;BME280_temperature;BME280_humidity;BME280_pressure;Samples;Min_cycle;Max_cycle;Signal;HPM_P1;HPM_P2
2023/09/07 00:00:46;;;;;;;14.20;9.00;;;;;;;-128.00;-1.00;-1.00;105605;1251;1005156;-80
2023/09/07 00:03:32;;;;;;;27.00;8.90;;;;;;;-128.00;-1.00;-1.00;105602;1251;1060693;-80
2023/09/07 00:05:58;;;;;;;13.50;8.40;;;;;;;-128.00;-1.00;-1.00;105599;1251;1004167;-80
2023/09/07 00:08:25;;;;;;;12.60;8.80;;;;;;;-128.00;-1.00;-1.00;105581;1251;1004338;-80
2023/09/07 00:10:51;;;;;;;16.60;8.50;;;;;;;-128.00;-1.00;-1.00;105645;1251;1004215;-80
2023/09/07 00:13:18;;;;;;;13.90;7.90;;;;;;;-128.00;-1.00;-1.00;105650;1251;1004664;-79
2023/09/07 00:15:44;;;;;;;12.20;8.60;;;;;;;-128.00;-1.00;-1.00;105599;1251;1004349;-80
2023/09/07 00:18:11;;;;;;;10.60;7.60;;;;;;;-128.00;-1.00;-1.00;105774;1251;1004183;-79
2023/09/07 00:20:38;;;;;;;14.30;8.40;;;;;;;-128.00;-1.00;-1.00;105667;1251;1003751;-80
2023/09/07 00:23:04;;;;;;;11.90;7.30;;;;;;;-128.00;-1.00;-1.00;105567;1251;1004140;-80
2023/09/07 00:25:31;;;;;;;11.00;7.90;;;;;;;-128.00;-1.00;-1.00;105618;1251;1004796;-79
2023/09/07 00:27:57;;;;;;;13.90;8.00;;;;;;;-128.00;-1.00;-1.00;105587;1251;1004098;-79
2023/09/07 00:30:23;;;;;;;11.40;7.50;;;;;;;-128.00;-1.00;-1.00;105570;1251;1004007;-79
2023/09/07 00:32:50;;;;;;;13.50;8.10;;;;;;;-128.00;-1.00;-1.00;105631;1251;1003588;-79
2023/09/07 00:35:16;;;;;;;12.60;8.50;;;;;;;-128.00;-1.00;-1.00;105422;1251;1003896;-80
2023/09/07 00:37:43;;;;;;;14.00;8.70;;;;;;;-128.00;-1.00;-1.00;105568;1251;1003737;-80
2023/09/07 00:40:09;;;;;;;14.40;8.60;;;;;;;-128.00;-1.00;-1.00;105559;1251;1004168;-80
2023/09/07 00:42:36;;;;;;;12.90;8.10;;;;;;;-128.00;-1.00;-1.00;105572;1251;1004662;-79
2023/09/07 00:45:03;;;;;;;11.40;8.20;;;;;;;-128.00;-1.00;-1.00;105807;1251;1004341;-80
2023/09/07 00:47:30;;;;;;;10.30;7.10;;;;;;;-128.00;-1.00;-1.00;105800;1251;1004376;-80
2023/09/07 00:49:58;;;;;;;14.90;8.50;;;;;;;-128.00;-1.00;-1.00;105808;1251;1004380;-80
2023/09/07 00:52:24;;;;;;;15.10;8.20;;;;;;;-128.00;-1.00;-1.00;105769;1251;1004347;-80
2023/09/07 00:54:51;;;;;;;14.70;8.20;;;;;;;-128.00;-1.00;-1.00;105592;1251;1004588;-80
2023/09/07 00:57:17;;;;;;;15.10;7.80;;;;;;;-128.00;-1.00;-1.00;105601;1251;1005338;-80
2023/09/07 00:59:44;;;;;;;14.60;8.00;;;;;;;-128.00;-1.00;-1.00;105584;1251;1005057;-79
2023/09/07 01:02:11;;;;;;;12.50;7.80;;;;;;;-128.00;-1.00;-1.00;105568;1251;1003936;-79
2023/09/07 01:04:37;;;;;;;11.30;7.50;;;;;;;-128.00;-1.00;-1.00;105714;1251;1004050;-80
2023/09/07 01:07:24;;;;;;;11.50;7.80;;;;;;;-128.00;-1.00;-1.00;105784;1251;1004120;-80
2023/09/07 01:09:56;;;;;;;11.00;7.20;;;;;;;-128.00;-1.00;-1.00;105549;1251;1046761;-79
2023/09/07 01:12:23;;;;;;;13.10;7.80;;;;;;;-128.00;-1.00;-1.00;105663;1251;1061369;-80
2023/09/07 01:14:50;;;;;;;19.40;9.30;;;;;;;-128.00;-1.00;-1.00;105788;1251;1004277;-79
2023/09/07 01:17:16;;;;;;;13.50;8.20;;;;;;;-128.00;-1.00;-1.00;105471;1251;1003875;-80
2023/09/07 01:19:43;;;;;;;13.20;9.30;;;;;;;-128.00;-1.00;-1.00;105568;1251;1003810;-79
2023/09/07 01:22:10;;;;;;;12.90;8.10;;;;;;;-128.00;-1.00;-1.00;105343;1251;1004178;-79
2023/09/07 01:24:37;;;;;;;12.80;8.00;;;;;;;-128.00;-1.00;-1.00;105399;1251;1004729;-79
2023/09/07 01:27:04;;;;;;;10.70;8.20;;;;;;;-128.00;-1.00;-1.00;105421;1251;1003726;-80
2023/09/07 01:29:31;;;;;;;10.50;8.20;;;;;;;-128.00;-1.00;-1.00;105587;1251;1004724;-80
2023/09/07 01:31:57;;;;;;;13.20;8.00;;;;;;;-128.00;-1.00;-1.00;105392;1251;1003763;-79
2023/09/07 01:34:24;;;;;;;11.80;8.30;;;;;;;-128.00;-1.00;-1.00;105611;1251;1003439;-79
2023/09/07 01:36:51;;;;;;;15.70;9.30;;;;;;;-128.00;-1.00;-1.00;105401;1251;1004659;-79
2023/09/07 01:39:17;;;;;;;16.40;8.00;;;;;;;-128.00;-1.00;-1.00;105559;1251;1004224;-79
2023/09/07 01:41:44;;;;;;;11.00;8.50;;;;;;;-128.00;-1.00;-1.00;105570;1251;1004595;-79
2023/09/07 01:44:10;;;;;;;12.60;7.00;;;;;;;-128.00;-1.00;-1.00;105305;1251;1005132;-79
2023/09/07 01:46:37;;;;;;;12.30;8.10;;;;;;;-128.00;-1.00;-1.00;105593;1251;1004653;-80
2023/09/07 01:49:04;;;;;;;13.50;8.20;;;;;;;-128.00;-1.00;-1.00;105606;1251;1005041;-79
2023/09/07 01:51:30;;;;;;;12.70;8.60;;;;;;;-128.00;-1.00;-1.00;105594;1251;1004184;-79
2023/09/07 01:53:56;;;;;;;11.90;8.60;;;;;;;-128.00;-1.00;-1.00;105571;1251;1004855;-80
2023/09/07 01:56:23;;;;;;;13.50;6.90;;;;;;;-128.00;-1.00;-1.00;105595;1251;1004219;-80
2023/09/07 01:58:49;;;;;;;13.10;7.20;;;;;;;-128.00;-1.00;-1.00;105603;1251;1004545;-79
2023/09/07 02:01:25;;;;;;;12.10;7.10;;;;;;;-128.00;-1.00;-1.00;105588;1251;1004932;-80
2023/09/07 02:03:52;;;;;;;12.00;7.80;;;;;;;-128.00;-1.00;-1.00;105604;1251;1059427;-79
2023/09/07 02:06:18;;;;;;;11.00;7.00;;;;;;;-128.00;-1.00;-1.00;105518;1251;1004600;-79
2023/09/07 02:08:45;;;;;;;13.00;7.60;;;;;;;-128.00;-1.00;-1.00;105555;1250;1003908;-79
2023/09/07 02:11:11;;;;;;;10.90;7.40;;;;;;;-128.00;-1.00;-1.00;105450;1251;1004420;-79
2023/09/07 02:13:41;;;;;;;10.80;7.60;;;;;;;-128.00;-1.00;-1.00;105575;1251;1004095;-79
2023/09/07 02:16:08;;;;;;;11.70;8.10;;;;;;;-128.00;-1.00;-1.00;105493;1250;1057089;-80
2023/09/07 02:18:36;;;;;;;12.50;7.30;;;;;;;-128.00;-1.00;-1.00;105575;1251;1004385;-80
2023/09/07 02:21:03;;;;;;;11.50;7.30;;;;;;;-128.00;-1.00;-1.00;105552;1251;1004288;-79
2023/09/07 02:23:32;;;;;;;11.50;7.50;;;;;;;-128.00;-1.00;-1.00;105757;1251;1004749;-79
2023/09/07 02:25:59;;;;;;;12.10;6.90;;;;;;;-128.00;-1.00;-1.00;105624;1251;1060964;-79
2023/09/07 02:28:26;;;;;;;9.30;6.30;;;;;;;-128.00;-1.00;-1.00;105547;1251;1005117;-79
2023/09/07 02:30:52;;;;;;;11.20;7.40;;;;;;;-128.00;-1.00;-1.00;105635;1250;1004016;-79
2023/09/07 02:33:18;;;;;;;11.30;7.80;;;;;;;-128.00;-1.00;-1.00;105552;1251;1004771;-79
2023/09/07 02:35:47;;;;;;;17.10;8.00;;;;;;;-128.00;-1.00;-1.00;105578;1251;1004126;-79
2023/09/07 02:38:14;;;;;;;14.50;7.80;;;;;;;-128.00;-1.00;-1.00;105365;1251;1060781;-80
2023/09/07 02:40:43;;;;;;;13.70;7.90;;;;;;;-128.00;-1.00;-1.00;105578;1250;1003460;-79
2023/09/07 02:43:10;;;;;;;11.30;8.20;;;;;;;-128.00;-1.00;-1.00;105584;1251;1061316;-79
2023/09/07 02:45:37;;;;;;;16.30;8.30;;;;;;;-128.00;-1.00;-1.00;105559;1251;1004450;-80
2023/09/07 02:48:05;;;;;;;10.10;7.20;;;;;;;-128.00;-1.00;-1.00;105613;1250;1004387;-80
2023/09/07 02:50:32;;;;;;;9.80;7.50;;;;;;;-128.00;-1.00;-1.00;105584;1251;1004669;-80
2023/09/07 02:53:00;;;;;;;21.20;7.80;;;;;;;-128.00;-1.00;-1.00;105624;1251;1004470;-79
2023/09/07 02:55:27;;;;;;;14.30;8.30;;;;;;;-128.00;-1.00;-1.00;105611;1251;1004338;-79
2023/09/07 02:57:55;;;;;;;14.70;7.90;;;;;;;-128.00;-1.00;-1.00;105460;1251;1004787;-79
2023/09/07 03:00:22;;;;;;;14.10;7.20;;;;;;;-128.00;-1.00;-1.00;105591;1251;1006021;-79
2023/09/07 03:02:49;;;;;;;12.90;8.00;;;;;;;-128.00;-1.00;-1.00;105626;1251;1004655;-79
2023/09/07 03:05:16;;;;;;;13.00;8.30;;;;;;;-128.00;-1.00;-1.00;105608;1251;1003807;-79
2023/09/07 03:07:44;;;;;;;13.90;8.30;;;;;;;-128.00;-1.00;-1.00;105580;1251;1003827;-79
2023/09/07 03:10:11;;;;;;;18.10;9.20;;;;;;;-128.00;-1.00;-1.00;105608;1251;1045232;-80
2023/09/07 03:12:38;;;;;;;12.90;8.90;;;;;;;-128.00;-1.00;-1.00;105632;1251;1004558;-79
2023/09/07 03:15:05;;;;;;;16.50;8.00;;;;;;;-128.00;-1.00;-1.00;105612;1251;1005159;-79
2023/09/07 03:17:33;;;;;;;12.40;8.60;;;;;;;-128.00;-1.00;-1.00;105581;1250;1004404;-79
2023/09/07 03:20:01;;;;;;;14.50;9.10;;;;;;;-128.00;-1.00;-1.00;105635;1251;1004310;-80
2023/09/07 03:22:29;;;;;;;15.80;9.60;;;;;;;-128.00;-1.00;-1.00;105622;1251;1003636;-80
2023/09/07 03:24:56;;;;;;;16.60;9.50;;;;;;;-128.00;-1.00;-1.00;105631;1251;1046163;-79
2023/09/07 03:27:22;;;;;;;18.80;8.60;;;;;;;-128.00;-1.00;-1.00;105644;1251;1003797;-79
2023/09/07 03:29:51;;;;;;;15.10;8.20;;;;;;;-128.00;-1.00;-1.00;105617;1250;1003834;-80
2023/09/07 03:32:17;;;;;;;;;;;;;;;-128.00;-1.00;-1.00;105820;1250;1060155;-80
2023/09/07 03:34:44;;;;;;;15.70;7.90;;;;;;;-128.00;-1.00;-1.00;105841;1250;1004610;-80
2023/09/07 03:37:11;;;;;;;16.60;8.10;;;;;;;-128.00;-1.00;-1.00;105830;1251;1004058;-79
2023/09/07 03:39:37;;;;;;;14.90;8.80;;;;;;;-128.00;-1.00;-1.00;105826;1251;1003621;-80
2023/09/07 03:42:04;;;;;;;17.90;9.00;;;;;;;-128.00;-1.00;-1.00;105849;1250;1004367;-80
2023/09/07 03:44:30;;;;;;;14.40;9.30;;;;;;;-128.00;-1.00;-1.00;105635;1250;1004713;-79
2023/09/07 03:46:57;;;;;;;15.30;9.00;;;;;;;-128.00;-1.00;-1.00;105607;1250;1004345;-79
2023/09/07 03:49:23;;;;;;;14.60;9.10;;;;;;;-128.00;-1.00;-1.00;105803;1251;1003597;-80
2023/09/07 03:51:50;;;;;;;9.70;7.00;;;;;;;-128.00;-1.00;-1.00;105850;1250;1004241;-80
2023/09/07 03:54:16;;;;;;;12.80;9.50;;;;;;;-128.00;-1.00;-1.00;105681;1251;1005212;-79
2023/09/07 03:56:43;;;;;;;10.30;6.80;;;;;;;-128.00;-1.00;-1.00;105735;1251;1003944;-80
2023/09/07 03:59:11;;;;;;;12.50;7.40;;;;;;;-128.00;-1.00;-1.00;105721;1251;1003698;-79
2023/09/07 04:01:37;;;;;;;15.20;8.70;;;;;;;-128.00;-1.00;-1.00;105707;1251;1003557;-80
2023/09/07 04:04:04;;;;;;;14.40;7.60;;;;;;;-128.00;-1.00;-1.00;105696;1251;1004301;-79
2023/09/07 04:06:30;;;;;;;31.50;9.20;;;;;;;-128.00;-1.00;-1.00;105811;1251;1004081;-79
2023/09/07 04:08:57;;;;;;;14.20;8.50;;;;;;;-128.00;-1.00;-1.00;105682;1251;1004967;-79
2023/09/07 04:11:23;;;;;;;16.30;7.60;;;;;;;-128.00;-1.00;-1.00;105662;1251;1003984;-79
2023/09/07 04:13:50;;;;;;;11.80;8.00;;;;;;;-128.00;-1.00;-1.00;105624;1250;1004964;-80
2023/09/07 04:16:16;;;;;;;10.10;7.90;;;;;;;-128.00;-1.00;-1.00;105455;1251;1004864;-79
2023/09/07 04:18:44;;;;;;;12.70;7.80;;;;;;;-128.00;-1.00;-1.00;105471;1251;1004820;-79
2023/09/07 04:21:10;;;;;;;10.60;7.50;;;;;;;-128.00;-1.00;-1.00;105517;1253;1004907;-79
2023/09/07 04:23:38;;;;;;;13.90;7.90;;;;;;;-128.00;-1.00;-1.00;105546;1251;1004087;-79
2023/09/07 04:26:08;;;;;;;12.70;8.10;;;;;;;-128.00;-1.00;-1.00;105532;1252;1004984;-79
2023/09/07 04:28:35;;;;;;;12.60;7.60;;;;;;;-128.00;-1.00;-1.00;105675;1252;1061397;-80
2023/09/07 04:31:02;;;;;;;13.30;8.20;;;;;;;-128.00;-1.00;-1.00;105681;1252;1004183;-79
2023/09/07 04:33:34;;;;;;;10.90;7.00;;;;;;;-128.00;-1.00;-1.00;105581;1253;1004427;-80
2023/09/07 04:36:10;;;;;;;11.10;8.50;;;;;;;-128.00;-1.00;-1.00;105667;1253;1044928;-79
2023/09/07 04:38:37;;;;;;;14.20;8.20;;;;;;;-128.00;-1.00;-1.00;105660;1253;1047179;-79
2023/09/07 04:41:11;;;;;;;14.50;8.30;;;;;;;-128.00;-1.00;-1.00;105675;1252;1005103;-79
2023/09/07 04:43:44;;;;;;;11.00;7.40;;;;;;;-128.00;-1.00;-1.00;105698;1253;1059119;-79
2023/09/07 04:46:11;;;;;;;12.10;8.10;;;;;;;-128.00;-1.00;-1.00;105601;1250;1059646;-79
2023/09/07 04:48:38;;;;;;;16.30;8.10;;;;;;;-128.00;-1.00;-1.00;105522;1251;1003744;-79
2023/09/07 04:51:05;;;;;;;14.30;7.80;;;;;;;-128.00;-1.00;-1.00;105620;1250;1004260;-79
2023/09/07 04:53:34;;;;;;;12.30;7.80;;;;;;;-128.00;-1.00;-1.00;105478;1251;1003406;-79
2023/09/07 04:56:01;;;;;;;12.10;8.00;;;;;;;-128.00;-1.00;-1.00;105836;1250;1057925;-79
2023/09/07 04:58:28;;;;;;;16.10;7.80;;;;;;;-128.00;-1.00;-1.00;105792;1251;1004134;-80
2023/09/07 05:01:00;;;;;;;15.50;8.80;;;;;;;-128.00;-1.00;-1.00;105679;1251;1003795;-80
2023/09/07 05:03:27;;;;;;;14.40;8.00;;;;;;;-128.00;-1.00;-1.00;105810;1250;1047889;-79
2023/09/07 05:05:53;;;;;;;13.00;6.80;;;;;;;-128.00;-1.00;-1.00;105646;1250;1005210;-80
2023/09/07 05:08:21;;;;;;;12.70;7.00;;;;;;;-128.00;-1.00;-1.00;105562;1250;1003345;-81
2023/09/07 05:10:47;;;;;;;9.60;7.00;;;;;;;-128.00;-1.00;-1.00;105440;1253;1003707;-79
2023/09/07 05:13:14;;;;;;;13.90;7.40;;;;;;;-128.00;-1.00;-1.00;105565;1250;1004562;-79
2023/09/07 05:15:48;;;;;;;14.70;8.00;;;;;;;-128.00;-1.00;-1.00;105559;1251;1004060;-79
2023/09/07 05:18:15;;;;;;;16.70;8.50;;;;;;;-128.00;-1.00;-1.00;105526;1253;1061796;-80
2023/09/07 05:20:41;;;;;;;14.90;9.50;;;;;;;-128.00;-1.00;-1.00;105309;1251;1004387;-80
2023/09/07 05:23:08;;;;;;;16.20;9.90;;;;;;;-128.00;-1.00;-1.00;105504;1250;1004351;-80
2023/09/07 05:25:34;;;;;;;17.10;9.40;;;;;;;-128.00;-1.00;-1.00;105435;1251;1004136;-80
2023/09/07 05:28:01;;;;;;;13.80;8.00;;;;;;;-128.00;-1.00;-1.00;105578;1251;1005051;-80
2023/09/07 05:30:27;;;;;;;10.90;7.40;;;;;;;-128.00;-1.00;-1.00;105715;1253;1004156;-80
2023/09/07 05:32:55;;;;;;;11.50;7.60;;;;;;;-128.00;-1.00;-1.00;105687;1255;1003875;-80
2023/09/07 05:35:27;;;;;;;11.30;7.50;;;;;;;-128.00;-1.00;-1.00;105628;1251;1004399;-79
2023/09/07 05:37:53;;;;;;;14.90;8.10;;;;;;;-128.00;-1.00;-1.00;105714;1254;1045609;-79
2023/09/07 05:40:20;;;;;;;10.90;6.90;;;;;;;-128.00;-1.00;-1.00;105628;1251;1003976;-80
2023/09/07 05:42:46;;;;;;;12.50;8.10;;;;;;;-128.00;-1.00;-1.00;105566;1251;1005244;-80
2023/09/07 05:45:13;;;;;;;12.70;7.00;;;;;;;-128.00;-1.00;-1.00;105508;1250;1004461;-79
2023/09/07 05:47:39;;;;;;;9.70;7.40;;;;;;;-128.00;-1.00;-1.00;105521;1251;1004397;-80
2023/09/07 05:50:06;;;;;;;14.40;7.60;;;;;;;-128.00;-1.00;-1.00;105438;1251;1005260;-80
2023/09/07 05:52:32;;;;;;;11.70;8.40;;;;;;;-128.00;-1.00;-1.00;105483;1251;1004625;-80
2023/09/07 05:54:59;;;;;;;14.80;8.80;;;;;;;-128.00;-1.00;-1.00;105452;1251;1004098;-80
2023/09/07 05:57:25;;;;;;;12.30;7.60;;;;;;;-128.00;-1.00;-1.00;105567;1251;1004971;-80
2023/09/07 05:59:52;;;;;;;16.90;8.70;;;;;;;-128.00;-1.00;-1.00;105616;1251;1004485;-79
2023/09/07 06:02:18;;;;;;;13.80;8.70;;;;;;;-128.00;-1.00;-1.00;105560;1250;1004313;-80
2023/09/07 06:04:45;;;;;;;14.00;9.30;;;;;;;-128.00;-1.00;-1.00;105558;1250;1003997;-80
2023/09/07 06:07:11;;;;;;;16.70;10.60;;;;;;;-128.00;-1.00;-1.00;105528;1250;1004565;-80
2023/09/07 06:09:37;;;;;;;14.90;9.50;;;;;;;-128.00;-1.00;-1.00;105546;1251;1004165;-80
2023/09/07 06:12:04;;;;;;;12.50;8.40;;;;;;;-128.00;-1.00;-1.00;105496;1251;1004761;-80
2023/09/07 06:14:30;;;;;;;14.40;8.50;;;;;;;-128.00;-1.00;-1.00;105715;1250;1004847;-80
2023/09/07 06:16:57;;;;;;;14.40;10.30;;;;;;;-128.00;-1.00;-1.00;105781;1250;1005465;-80
2023/09/07 06:19:23;;;;;;;12.80;9.20;;;;;;;-128.00;-1.00;-1.00;105732;1250;1003609;-80
2023/09/07 06:21:50;;;;;;;17.60;9.50;;;;;;;-128.00;-1.00;-1.00;105754;1251;1004000;-80
2023/09/07 06:24:16;;;;;;;14.30;8.80;;;;;;;-128.00;-1.00;-1.00;105681;1251;1004743;-80
2023/09/07 06:26:44;;;;;;;16.10;8.40;;;;;;;-128.00;-1.00;-1.00;105712;1250;1005019;-80
2023/09/07 06:29:11;;;;;;;12.10;8.10;;;;;;;-128.00;-1.00;-1.00;105547;1253;1004973;-80
2023/09/07 06:31:38;;;;;;;10.40;8.10;;;;;;;-128.00;-1.00;-1.00;105518;1250;1004086;-80
2023/09/07 06:34:05;;;;;;;14.20;9.10;;;;;;;-128.00;-1.00;-1.00;105519;1250;1004146;-80
2023/09/07 06:36:31;;;;;;;13.10;8.00;;;;;;;-128.00;-1.00;-1.00;105535;1251;1004269;-80
2023/09/07 06:38:58;;;;;;;12.70;8.90;;;;;;;-128.00;-1.00;-1.00;105571;1251;1004103;-80
2023/09/07 06:41:25;;;;;;;14.80;8.30;;;;;;;-128.00;-1.00;-1.00;105529;1251;1004072;-81
2023/09/07 06:43:51;;;;;;;12.60;7.50;;;;;;;-128.00;-1.00;-1.00;105570;1251;1004702;-80
2023/09/07 06:46:18;;;;;;;11.50;8.40;;;;;;;-128.00;-1.00;-1.00;105518;1251;1003470;-80
2023/09/07 06:48:45;;;;;;;10.60;7.70;;;;;;;-128.00;-1.00;-1.00;105497;1251;1004370;-80
2023/09/07 06:51:11;;;;;;;10.80;7.90;;;;;;;-128.00;-1.00;-1.00;105543;1251;1004399;-80
2023/09/07 06:53:38;;;;;;;10.30;7.30;;;;;;;-128.00;-1.00;-1.00;105521;1251;1004183;-80
2023/09/07 06:56:05;;;;;;;14.10;7.10;;;;;;;-128.00;-1.00;-1.00;105551;1250;1004022;-80
2023/09/07 06:58:34;;;;;;;9.70;7.10;;;;;;;-128.00;-1.00;-1.00;105551;1251;1005007;-81
2023/09/07 07:01:01;;;;;;;11.60;7.20;;;;;;;-128.00;-1.00;-1.00;105530;1251;1059659;-81
2023/09/07 07:03:29;;;;;;;10.30;7.40;;;;;;;-128.00;-1.00;-1.00;105551;1251;1004153;-81
2023/09/07 07:05:56;;;;;;;10.00;6.90;;;;;;;-128.00;-1.00;-1.00;105407;1251;1004829;-81
2023/09/07 07:08:23;;;;;;;13.90;6.50;;;;;;;-128.00;-1.00;-1.00;105542;1252;1004092;-81
2023/09/07 07:10:49;;;;;;;13.00;6.70;;;;;;;-128.00;-1.00;-1.00;105534;1251;1004520;-81
2023/09/07 07:13:16;;;;;;;13.70;7.10;;;;;;;-128.00;-1.00;-1.00;105474;1253;1003551;-81
2023/09/07 07:15:42;;;;;;;10.80;6.30;;;;;;;-128.00;-1.00;-1.00;105551;1250;1005103;-81
2023/09/07 07:18:09;;;;;;;10.30;6.10;;;;;;;-128.00;-1.00;-1.00;105653;1250;1003679;-82
2023/09/07 07:20:37;;;;;;;14.20;7.40;;;;;;;-128.00;-1.00;-1.00;105564;1251;1004267;-82
2023/09/07 07:23:06;;;;;;;12.90;7.00;;;;;;;-128.00;-1.00;-1.00;105538;1251;1004110;-81
2023/09/07 07:25:33;;;;;;;9.90;6.00;;;;;;;-128.00;-1.00;-1.00;105710;1251;1060078;-81
2023/09/07 07:28:00;;;;;;;7.50;5.40;;;;;;;-128.00;-1.00;-1.00;105749;1251;1005248;-81
2023/09/07 07:30:29;;;;;;;10.60;6.80;;;;;;;-128.00;-1.00;-1.00;105792;1251;1004811;-82
2023/09/07 07:32:55;;;;;;;;;;;;;;;-128.00;-1.00;-1.00;105761;1251;1060998;-82
2023/09/07 07:35:22;;;;;;;14.70;7.40;;;;;;;-128.00;-1.00;-1.00;105753;1251;1003862;-82
2023/09/07 07:37:49;;;;;;;14.10;6.70;;;;;;;-128.00;-1.00;-1.00;105673;1252;1004349;-82
2023/09/07 07:40:17;;;;;;;11.30;7.40;;;;;;;-128.00;-1.00;-1.00;105684;1253;1004484;-83
2023/09/07 07:42:46;;;;;;;17.60;7.20;;;;;;;-128.00;-1.00;-1.00;105705;1250;1003818;-82
2023/09/07 07:45:13;;;;;;;10.60;7.50;;;;;;;-128.00;-1.00;-1.00;105704;1250;1061090;-82
2023/09/07 07:47:45;;;;;;;9.90;7.50;;;;;;;-128.00;-1.00;-1.00;105724;1251;1003794;-85
2023/09/07 07:50:12;;;;;;;12.20;8.30;;;;;;;-128.00;-1.00;-1.00;105704;1251;1059866;-82
2023/09/07 07:52:38;;;;;;;10.50;6.30;;;;;;;-128.00;-1.00;-1.00;105677;1251;1004174;-83
2023/09/07 07:55:06;;;;;;;10.20;6.90;;;;;;;-128.00;-1.00;-1.00;105703;1251;1003562;-82
2023/09/07 07:57:32;;;;;;;12.20;7.30;;;;;;;-128.00;-1.00;-1.00;105730;1250;1004385;-83
2023/09/07 07:59:59;;;;;;;10.50;6.30;;;;;;;-128.00;-1.00;-1.00;105714;1254;1004525;-82
2023/09/07 08:02:25;;;;;;;15.50;7.50;;;;;;;-128.00;-1.00;-1.00;105724;1250;1004114;-82
2023/09/07 08:04:52;;;;;;;16.00;6.60;;;;;;;-128.00;-1.00;-1.00;105674;1251;1004574;-83
2023/09/07 08:07:18;;;;;;;8.20;6.50;;;;;;;-128.00;-1.00;-1.00;105780;1252;1004764;-83
2023/09/07 08:09:45;;;;;;;10.30;6.30;;;;;;;-128.00;-1.00;-1.00;105759;1250;1003825;-83
2023/09/07 08:12:11;;;;;;;8.20;5.90;;;;;;;-128.00;-1.00;-1.00;105736;1250;1004104;-83
2023/09/07 08:14:38;;;;;;;9.30;5.00;;;;;;;-128.00;-1.00;-1.00;105642;1251;1004267;-83
2023/09/07 08:17:04;;;;;;;10.40;5.30;;;;;;;-128.00;-1.00;-1.00;105462;1251;1005192;-83
2023/09/07 08:19:31;;;;;;;7.90;4.90;;;;;;;-128.00;-1.00;-1.00;105631;1251;1005745;-83
2023/09/07 08:21:58;;;;;;;7.20;5.10;;;;;;;-128.00;-1.00;-1.00;105588;1251;1005308;-83
2023/09/07 08:24:24;;;;;;;7.50;5.20;;;;;;;-128.00;-1.00;-1.00;105581;1251;1003913;-83
2023/09/07 08:26:51;;;;;;;9.40;5.60;;;;;;;-128.00;-1.00;-1.00;105574;1250;1003670;-83
2023/09/07 08:29:20;;;;;;;8.80;6.00;;;;;;;-128.00;-1.00;-1.00;105545;1251;1004317;-83
2023/09/07 08:31:48;;;;;;;9.60;6.30;;;;;;;-128.00;-1.00;-1.00;105556;1250;1047614;-83
2023/09/07 08:34:15;;;;;;;6.60;5.20;;;;;;;-128.00;-1.00;-1.00;105568;1251;1005966;-83
2023/09/07 08:36:42;;;;;;;8.10;5.00;;;;;;;-128.00;-1.00;-1.00;105572;1251;1005068;-83
2023/09/07 08:39:12;;;;;;;34.40;5.70;;;;;;;-128.00;-1.00;-1.00;105581;1250;1004323;-83
2023/09/07 08:41:43;;;;;;;11.30;5.90;;;;;;;-128.00;-1.00;-1.00;105549;1250;1044577;-83
2023/09/07 08:44:10;;;;;;;7.60;4.50;;;;;;;-128.00;-1.00;-1.00;105618;1249;1048006;-83
2023/09/07 08:46:37;;;;;;;6.90;4.90;;;;;;;-128.00;-1.00;-1.00;105544;1250;1004542;-83
2023/09/07 08:49:04;;;;;;;13.70;5.20;;;;;;;-128.00;-1.00;-1.00;105567;1251;1004230;-83
2023/09/07 08:51:36;;;;;;;7.10;4.60;;;;;;;-128.00;-1.00;-1.00;105471;1250;1004526;-83
2023/09/07 08:54:03;;;;;;;8.40;4.80;;;;;;;-128.00;-1.00;-1.00;105509;1251;1045035;-83
2023/09/07 08:56:29;;;;;;;13.70;4.90;;;;;;;-128.00;-1.00;-1.00;105504;1251;1004198;-84
2023/09/07 08:58:56;;;;;;;6.90;4.10;;;;;;;-128.00;-1.00;-1.00;105571;1251;1003955;-83
2023/09/07 09:01:22;;;;;;;5.60;4.20;;;;;;;-128.00;-1.00;-1.00;105504;1254;1004238;-83
2023/09/07 09:03:49;;;;;;;3.90;3.50;;;;;;;-128.00;-1.00;-1.00;105553;1254;1004628;-83
2023/09/07 09:06:16;;;;;;;4.50;3.70;;;;;;;-128.00;-1.00;-1.00;105536;1250;1003921;-83
2023/09/07 09:08:44;;;;;;;6.20;4.20;;;;;;;-128.00;-1.00;-1.00;105484;1251;1004348;-83
2023/09/07 09:11:11;;;;;;;6.00;3.70;;;;;;;-128.00;-1.00;-1.00;105567;1250;1004305;-83
2023/09/07 09:13:39;;;;;;;7.20;3.70;;;;;;;-128.00;-1.00;-1.00;105384;1251;1005021;-83
2023/09/07 09:16:06;;;;;;;5.80;3.90;;;;;;;-128.00;-1.00;-1.00;105552;1251;1060182;-83
2023/09/07 09:18:32;;;;;;;4.60;4.00;;;;;;;-128.00;-1.00;-1.00;105466;1251;1005284;-83
2023/09/07 09:20:59;;;;;;;5.10;3.80;;;;;;;-128.00;-1.00;-1.00;105669;1251;1004710;-82
2023/09/07 09:23:36;;;;;;;8.40;4.60;;;;;;;-128.00;-1.00;-1.00;105687;1251;1005072;-83
2023/09/07 09:26:06;;;;;;;6.30;4.30;;;;;;;-128.00;-1.00;-1.00;105750;1251;1057336;-83
2023/09/07 09:28:32;;;;;;;6.00;4.80;;;;;;;-128.00;-1.00;-1.00;105710;1251;1059339;-82
2023/09/07 09:31:00;;;;;;;5.50;4.00;;;;;;;-128.00;-1.00;-1.00;105669;1251;1003736;-82
2023/09/07 09:33:27;;;;;;;8.60;4.50;;;;;;;-128.00;-1.00;-1.00;105683;1251;1004225;-82
2023/09/07 09:35:54;;;;;;;7.40;4.70;;;;;;;-128.00;-1.00;-1.00;105454;1257;1003939;-82
2023/09/07 09:38:21;;;;;;;6.60;4.70;;;;;;;-128.00;-1.00;-1.00;105599;1251;1004951;-82
2023/09/07 09:40:47;;;;;;;5.20;4.40;;;;;;;-128.00;-1.00;-1.00;105564;1251;1004267;-82
2023/09/07 09:43:14;;;;;;;6.90;4.30;;;;;;;-128.00;-1.00;-1.00;105666;1251;1004853;-82
2023/09/07 09:45:40;;;;;;;5.50;4.50;;;;;;;-128.00;-1.00;-1.00;105610;1251;1004730;-82
2023/09/07 09:48:06;;;;;;;8.40;5.00;;;;;;;-128.00;-1.00;-1.00;105528;1251;1003974;-82
2023/09/07 09:50:39;;;;;;;7.00;4.90;;;;;;;-128.00;-1.00;-1.00;105579;1251;1004726;-82
2023/09/07 09:53:06;;;;;;;7.80;4.60;;;;;;;-128.00;-1.00;-1.00;105443;1251;1058671;-81
2023/09/07 09:55:36;;;;;;;14.30;5.00;;;;;;;-128.00;-1.00;-1.00;105537;1251;1004082;-81
2023/09/07 09:58:03;;;;;;;6.90;4.40;;;;;;;-128.00;-1.00;-1.00;105494;1255;1047001;-81
2023/09/07 10:00:30;;;;;;;6.70;4.50;;;;;;;-128.00;-1.00;-1.00;105465;1254;1004062;-82
2023/09/07 10:03:18;;;;;;;7.90;4.80;;;;;;;-128.00;-1.00;-1.00;105408;1251;1003648;-82
2023/09/07 10:05:46;;;;;;;6.10;4.50;;;;;;;-128.00;-1.00;-1.00;105404;1251;1059566;-82
2023/09/07 10:08:13;;;;;;;8.60;5.30;;;;;;;-128.00;-1.00;-1.00;105476;1252;1004915;-82
2023/09/07 10:10:41;;;;;;;6.60;4.70;;;;;;;-128.00;-1.00;-1.00;105536;1254;1003904;-82
2023/09/07 10:13:08;;;;;;;6.70;4.60;;;;;;;-128.00;-1.00;-1.00;105377;1253;1004781;-82
2023/09/07 10:15:38;;;;;;;6.80;4.50;;;;;;;-128.00;-1.00;-1.00;105294;1251;1003820;-82
2023/09/07 10:18:13;;;;;;;6.00;4.80;;;;;;;-128.00;-1.00;-1.00;105503;1251;1060024;-82
2023/09/07 10:20:49;;;;;;;7.20;4.70;;;;;;;-128.00;-1.00;-1.00;105397;1256;1045119;-82
2023/09/07 10:23:16;;;;;;;7.70;5.20;;;;;;;-128.00;-1.00;-1.00;105474;1251;1047087;-82
2023/09/07 10:25:42;;;;;;;7.90;4.80;;;;;;;-128.00;-1.00;-1.00;105547;1250;1004131;-82
2023/09/07 10:28:22;;;;;;;8.30;4.60;;;;;;;-128.00;-1.00;-1.00;105539;1251;1004187;-81
2023/09/07 10:31:03;;;;;;;7.30;4.70;;;;;;;-128.00;-1.00;-1.00;105522;1250;1058852;-82
2023/09/07 10:33:33;;;;;;;7.60;4.40;;;;;;;-128.00;-1.00;-1.00;105518;1251;1045169;-81
2023/09/07 10:36:01;;;;;;;8.60;5.00;;;;;;;-128.00;-1.00;-1.00;105389;1251;1047231;-81
2023/09/07 10:38:27;;;;;;;7.60;5.00;;;;;;;-128.00;-1.00;-1.00;105426;1251;1004547;-81
2023/09/07 10:40:57;;;;;;;9.00;4.80;;;;;;;-128.00;-1.00;-1.00;105560;1251;1003610;-82
2023/09/07 10:43:25;;;;;;;6.30;4.50;;;;;;;-128.00;-1.00;-1.00;105468;1251;1060854;-82
2023/09/07 10:45:52;;;;;;;9.00;4.70;;;;;;;-128.00;-1.00;-1.00;105363;1253;1003929;-82
2023/09/07 10:48:19;;;;;;;6.90;4.60;;;;;;;-128.00;-1.00;-1.00;105625;1250;1003400;-82
2023/09/07 10:50:45;;;;;;;8.70;5.40;;;;;;;-128.00;-1.00;-1.00;105570;1251;1003944;-82
2023/09/07 10:53:14;;;;;;;7.70;5.00;;;;;;;-128.00;-1.00;-1.00;105434;1251;1004058;-82
2023/09/07 10:55:40;;;;;;;7.50;4.40;;;;;;;-128.00;-1.00;-1.00;105474;1254;1003326;-82
2023/09/07 10:58:08;;;;;;;6.80;5.10;;;;;;;-128.00;-1.00;-1.00;105557;1251;1003848;-82
2023/09/07 11:00:35;;;;;;;8.00;5.40;;;;;;;-128.00;-1.00;-1.00;105610;1251;1004395;-82
2023/09/07 11:03:09;;;;;;;9.60;5.50;;;;;;;-128.00;-1.00;-1.00;105624;1251;1003746;-82
2023/09/07 11:05:36;;;;;;;10.60;5.80;;;;;;;-128.00;-1.00;-1.00;105560;1251;1058511;-82
2023/09/07 11:08:05;;;;;;;7.50;5.40;;;;;;;-128.00;-1.00;-1.00;105386;1253;1004808;-82
2023/09/07 11:10:32;;;;;;;;;;;;;;;-128.00;-1.00;-1.00;105550;1251;1044369;-82
2023/09/07 11:13:02;;;;;;;16.40;5.50;;;;;;;-128.00;-1.00;-1.00;105511;1251;1004158;-82